METAR UND TAF INFORMATION
VECC 040600Z 22007KT 4500 HZ SCT020 35/29 Q1004 NOSIG

 FLUGHAFENKARTE

 RUNWAY INFORMATION
Runway 01L Runway length 7871 ft Runway width 150 ft
Runway elevation 19 ft Runway displaced threshold 0 ft Runway heading 6
Runway 19R Runway length 7871 ft Runway width 150 ft
Runway elevation 19 ft Runway displaced threshold 0 ft Runway heading 186
Runway 01R Runway length 11900 ft Runway width 150 ft
Runway elevation 20 ft Runway displaced threshold 0 ft Runway heading 6
Runway 19L Runway length 11900 ft Runway width 150 ft
Runway elevation 19 ft Runway displaced threshold 1390 ft Runway heading 186

 AIRPORT FREQUENCIES
Type A/G Name KOLKATA RD Frequency 127.3 MHZ
Type ACC Name KOLKATA CO Frequency 119.3 MHZ
Type APP Name KOLKATA AP Frequency 127.9 MHZ
Type APP CONTRO Name KOLKATA CO Frequency 132.45 MHZ
Type ATIS Name ATIS Frequency 126.4 MHZ
Type GND Name KOLKATA GN Frequency 121.9 MHZ
Type RADAR Name Feeder ARE Frequency 127.3 MHZ
Type TWR Name KOLKATA TW Frequency 118.1 MHZ

 AIRPORT NEAR NAVIGATION AIDS
Type VOR-DME Name Kolkata Frequency 112500 KHZ
Type NDB Name Kolkata Frequency 385 KHZ